Atkinsons Mills, Pennsylvania
Current Conditions -  °F | °C
As of 9:53 AM on Thursday 23 Oct 2014 (Local Time) from KUNV Reporting Station
Overcast Overcast  
Wind Chill: 44°   Ceiling: 2100
Heat Index: 48°   Visibility: 10mi
Dew Point: 41°   Wind: 9mph
Humidity: 76%   Direction: 360°N
Pressure: 29.99"   Gusts: 18mph
Location:  40.5138°N, 77.7384°W
Report Text: KUNV 231353Z 36008G16KT 10SM OVC021 09/05 A2999
Loading
Personal Weather Stations






























Interactive Weather Map
Tropical Storm Tracking
New forecast layout! Learn more

10-Day Weather Forecast

Advertisements
Track Severe Weather on mobile